sensor_id;sensor_type;location;lat;lon;timestamp;temperature;humidity
38398;DHT22;24179;52.094;4.408;2023-02-28T00:02:53;1.90;99.90
38398;DHT22;24179;52.094;4.408;2023-02-28T00:05:54;2.00;99.90
38398;DHT22;24179;52.094;4.408;2023-02-28T00:08:54;2.10;99.90
38398;DHT22;24179;52.094;4.408;2023-02-28T00:11:55;2.20;99.90
38398;DHT22;24179;52.094;4.408;2023-02-28T00:14:55;2.30;99.90
38398;DHT22;24179;52.094;4.408;2023-02-28T00:17:56;2.50;99.90
38398;DHT22;24179;52.094;4.408;2023-02-28T00:20:57;2.50;99.90
38398;DHT22;24179;52.094;4.408;2023-02-28T00:23:57;2.60;99.90
38398;DHT22;24179;52.094;4.408;2023-02-28T00:26:57;2.70;99.90
38398;DHT22;24179;52.094;4.408;2023-02-28T00:29:58;2.70;99.90
38398;DHT22;24179;52.094;4.408;2023-02-28T00:32:58;2.80;99.90
38398;DHT22;24179;52.094;4.408;2023-02-28T00:36:07;2.80;99.90
38398;DHT22;24179;52.094;4.408;2023-02-28T00:39:08;2.90;99.90
38398;DHT22;24179;52.094;4.408;2023-02-28T00:42:08;2.90;99.90
38398;DHT22;24179;52.094;4.408;2023-02-28T00:45:09;2.90;99.90
38398;DHT22;24179;52.094;4.408;2023-02-28T00:48:09;3.00;99.90
38398;DHT22;24179;52.094;4.408;2023-02-28T00:51:10;3.00;99.90
38398;DHT22;24179;52.094;4.408;2023-02-28T00:54:10;3.10;99.90
38398;DHT22;24179;52.094;4.408;2023-02-28T00:57:11;3.10;99.90
38398;DHT22;24179;52.094;4.408;2023-02-28T01:00:11;3.20;99.90
38398;DHT22;24179;52.094;4.408;2023-02-28T01:03:12;3.20;99.90
38398;DHT22;24179;52.094;4.408;2023-02-28T01:06:12;3.30;99.90
38398;DHT22;24179;52.094;4.408;2023-02-28T01:09:13;3.30;99.90
38398;DHT22;24179;52.094;4.408;2023-02-28T01:12:13;3.30;99.90
38398;DHT22;24179;52.094;4.408;2023-02-28T01:15:14;3.40;99.90
38398;DHT22;24179;52.094;4.408;2023-02-28T01:18:14;3.40;99.90
38398;DHT22;24179;52.094;4.408;2023-02-28T01:21:16;3.40;99.90
38398;DHT22;24179;52.094;4.408;2023-02-28T01:24:17;3.30;99.90
38398;DHT22;24179;52.094;4.408;2023-02-28T01:27:17;3.40;99.90
38398;DHT22;24179;52.094;4.408;2023-02-28T01:30:18;3.40;99.90
38398;DHT22;24179;52.094;4.408;2023-02-28T01:33:18;3.40;99.90
38398;DHT22;24179;52.094;4.408;2023-02-28T01:36:20;3.40;99.90
38398;DHT22;24179;52.094;4.408;2023-02-28T01:39:21;3.50;99.90
38398;DHT22;24179;52.094;4.408;2023-02-28T01:42:22;3.40;99.90
38398;DHT22;24179;52.094;4.408;2023-02-28T01:45:26;3.50;99.90
38398;DHT22;24179;52.094;4.408;2023-02-28T01:48:30;3.50;99.90
38398;DHT22;24179;52.094;4.408;2023-02-28T01:51:39;3.50;99.90
38398;DHT22;24179;52.094;4.408;2023-02-28T01:54:40;3.50;99.90
38398;DHT22;24179;52.094;4.408;2023-02-28T01:57:42;3.60;99.90
38398;DHT22;24179;52.094;4.408;2023-02-28T02:00:46;3.60;99.90
38398;DHT22;24179;52.094;4.408;2023-02-28T02:03:48;3.60;99.90
38398;DHT22;24179;52.094;4.408;2023-02-28T02:06:49;3.60;99.90
38398;DHT22;24179;52.094;4.408;2023-02-28T02:09:50;3.60;99.90
38398;DHT22;24179;52.094;4.408;2023-02-28T02:25:43;3.50;99.90
38398;DHT22;24179;52.094;4.408;2023-02-28T02:35:18;3.50;99.90
38398;DHT22;24179;52.094;4.408;2023-02-28T02:44:45;3.50;99.90
38398;DHT22;24179;52.094;4.408;2023-02-28T02:47:47;3.50;99.90
38398;DHT22;24179;52.094;4.408;2023-02-28T02:50:50;3.60;99.90
38398;DHT22;24179;52.094;4.408;2023-02-28T02:53:52;3.50;99.90
38398;DHT22;24179;52.094;4.408;2023-02-28T02:56:55;3.60;99.90
38398;DHT22;24179;52.094;4.408;2023-02-28T02:59:57;3.60;99.90
38398;DHT22;24179;52.094;4.408;2023-02-28T03:02:59;3.60;99.90
38398;DHT22;24179;52.094;4.408;2023-02-28T03:06:01;3.50;99.90
38398;DHT22;24179;52.094;4.408;2023-02-28T03:09:02;3.60;99.90
38398;DHT22;24179;52.094;4.408;2023-02-28T03:12:04;3.60;99.90
38398;DHT22;24179;52.094;4.408;2023-02-28T03:18:20;3.60;99.90
38398;DHT22;24179;52.094;4.408;2023-02-28T03:21:36;3.50;99.90
38398;DHT22;24179;52.094;4.408;2023-02-28T03:27:57;3.60;99.90
38398;DHT22;24179;52.094;4.408;2023-02-28T03:31:06;3.70;99.90
38398;DHT22;24179;52.094;4.408;2023-02-28T03:34:10;3.70;99.90
38398;DHT22;24179;52.094;4.408;2023-02-28T03:37:14;3.70;99.90
38398;DHT22;24179;52.094;4.408;2023-02-28T03:40:21;3.70;99.90
38398;DHT22;24179;52.094;4.408;2023-02-28T03:43:25;3.70;99.90
38398;DHT22;24179;52.094;4.408;2023-02-28T03:46:28;3.80;99.90
38398;DHT22;24179;52.094;4.408;2023-02-28T03:49:32;3.80;99.90
38398;DHT22;24179;52.094;4.408;2023-02-28T03:52:36;3.80;99.90
38398;DHT22;24179;52.094;4.408;2023-02-28T03:55:39;3.90;99.90
38398;DHT22;24179;52.094;4.408;2023-02-28T03:58:42;3.90;99.90
38398;DHT22;24179;52.094;4.408;2023-02-28T04:01:45;4.00;99.90
38398;DHT22;24179;52.094;4.408;2023-02-28T04:04:46;4.00;99.90
38398;DHT22;24179;52.094;4.408;2023-02-28T04:07:48;4.00;99.90
38398;DHT22;24179;52.094;4.408;2023-02-28T04:10:51;4.00;99.90
38398;DHT22;24179;52.094;4.408;2023-02-28T04:13:53;4.10;99.90
38398;DHT22;24179;52.094;4.408;2023-02-28T04:16:53;4.10;99.90
38398;DHT22;24179;52.094;4.408;2023-02-28T04:19:54;4.10;99.90
38398;DHT22;24179;52.094;4.408;2023-02-28T04:22:56;4.10;99.90
38398;DHT22;24179;52.094;4.408;2023-02-28T04:25:57;4.10;99.90
38398;DHT22;24179;52.094;4.408;2023-02-28T04:28:57;4.10;99.90
38398;DHT22;24179;52.094;4.408;2023-02-28T04:31:58;4.10;99.90
38398;DHT22;24179;52.094;4.408;2023-02-28T04:34:59;4.10;99.90
38398;DHT22;24179;52.094;4.408;2023-02-28T04:37:59;4.10;99.90
38398;DHT22;24179;52.094;4.408;2023-02-28T04:41:00;4.10;99.90
38398;DHT22;24179;52.094;4.408;2023-02-28T04:44:00;4.10;99.90
38398;DHT22;24179;52.094;4.408;2023-02-28T04:47:01;4.10;99.90
38398;DHT22;24179;52.094;4.408;2023-02-28T04:50:01;4.00;99.90
38398;DHT22;24179;52.094;4.408;2023-02-28T04:53:02;4.00;99.90
38398;DHT22;24179;52.094;4.408;2023-02-28T04:56:03;3.90;99.90
38398;DHT22;24179;52.094;4.408;2023-02-28T04:59:04;3.80;99.90
38398;DHT22;24179;52.094;4.408;2023-02-28T05:02:04;3.80;99.90
38398;DHT22;24179;52.094;4.408;2023-02-28T05:05:08;3.80;99.90
38398;DHT22;24179;52.094;4.408;2023-02-28T05:08:08;3.80;99.90
38398;DHT22;24179;52.094;4.408;2023-02-28T05:11:17;3.80;99.90
38398;DHT22;24179;52.094;4.408;2023-02-28T05:14:18;3.80;99.90
38398;DHT22;24179;52.094;4.408;2023-02-28T05:17:18;3.70;99.90
38398;DHT22;24179;52.094;4.408;2023-02-28T05:20:19;3.70;99.90
38398;DHT22;24179;52.094;4.408;2023-02-28T05:23:21;3.80;99.90
38398;DHT22;24179;52.094;4.408;2023-02-28T05:26:22;3.80;99.90
38398;DHT22;24179;52.094;4.408;2023-02-28T05:29:23;3.80;99.90
38398;DHT22;24179;52.094;4.408;2023-02-28T05:32:23;3.80;99.90
38398;DHT22;24179;52.094;4.408;2023-02-28T05:35:24;3.80;99.90
38398;DHT22;24179;52.094;4.408;2023-02-28T05:38:24;3.90;99.90
38398;DHT22;24179;52.094;4.408;2023-02-28T05:41:25;3.80;99.90
38398;DHT22;24179;52.094;4.408;2023-02-28T05:44:26;3.80;99.90
38398;DHT22;24179;52.094;4.408;2023-02-28T05:47:26;3.80;99.90
38398;DHT22;24179;52.094;4.408;2023-02-28T05:50:27;3.80;99.90
38398;DHT22;24179;52.094;4.408;2023-02-28T05:53:27;3.80;99.90
38398;DHT22;24179;52.094;4.408;2023-02-28T05:56:28;3.70;99.90
38398;DHT22;24179;52.094;4.408;2023-02-28T05:59:29;3.70;99.90
38398;DHT22;24179;52.094;4.408;2023-02-28T06:02:29;3.70;99.90
38398;DHT22;24179;52.094;4.408;2023-02-28T06:05:31;3.70;99.90
38398;DHT22;24179;52.094;4.408;2023-02-28T06:08:31;3.70;99.90
38398;DHT22;24179;52.094;4.408;2023-02-28T06:11:32;3.70;99.90
38398;DHT22;24179;52.094;4.408;2023-02-28T06:14:33;3.70;99.90
38398;DHT22;24179;52.094;4.408;2023-02-28T06:17:33;3.70;99.90
38398;DHT22;24179;52.094;4.408;2023-02-28T06:20:34;3.70;99.90
38398;DHT22;24179;52.094;4.408;2023-02-28T06:23:36;3.70;99.90
38398;DHT22;24179;52.094;4.408;2023-02-28T06:26:37;3.70;99.90
38398;DHT22;24179;52.094;4.408;2023-02-28T06:29:37;3.70;99.90
38398;DHT22;24179;52.094;4.408;2023-02-28T06:32:39;3.60;99.90
38398;DHT22;24179;52.094;4.408;2023-02-28T06:35:42;3.60;99.90
38398;DHT22;24179;52.094;4.408;2023-02-28T06:38:43;3.70;99.90
38398;DHT22;24179;52.094;4.408;2023-02-28T06:41:44;3.60;99.90
38398;DHT22;24179;52.094;4.408;2023-02-28T06:44:46;3.60;99.90
38398;DHT22;24179;52.094;4.408;2023-02-28T06:47:46;3.60;99.90
38398;DHT22;24179;52.094;4.408;2023-02-28T06:50:52;3.60;99.90
38398;DHT22;24179;52.094;4.408;2023-02-28T06:53:52;3.60;99.90
38398;DHT22;24179;52.094;4.408;2023-02-28T06:56:53;3.60;99.90
38398;DHT22;24179;52.094;4.408;2023-02-28T06:59:54;3.50;99.90
38398;DHT22;24179;52.094;4.408;2023-02-28T07:02:54;3.50;99.90
38398;DHT22;24179;52.094;4.408;2023-02-28T07:05:55;3.50;99.90
38398;DHT22;24179;52.094;4.408;2023-02-28T07:08:56;3.40;99.90
38398;DHT22;24179;52.094;4.408;2023-02-28T07:11:57;3.30;99.90
38398;DHT22;24179;52.094;4.408;2023-02-28T07:14:57;3.30;99.90
38398;DHT22;24179;52.094;4.408;2023-02-28T07:17:58;3.10;99.90
38398;DHT22;24179;52.094;4.408;2023-02-28T07:21:01;3.00;99.90
38398;DHT22;24179;52.094;4.408;2023-02-28T07:24:01;2.90;99.90
38398;DHT22;24179;52.094;4.408;2023-02-28T07:27:02;2.70;99.90
38398;DHT22;24179;52.094;4.408;2023-02-28T07:30:03;2.50;99.90
38398;DHT22;24179;52.094;4.408;2023-02-28T07:33:03;2.40;99.90
38398;DHT22;24179;52.094;4.408;2023-02-28T07:36:05;2.20;99.90
38398;DHT22;24179;52.094;4.408;2023-02-28T07:39:06;2.10;99.90
38398;DHT22;24179;52.094;4.408;2023-02-28T07:42:06;1.90;99.90
38398;DHT22;24179;52.094;4.408;2023-02-28T07:45:11;1.90;99.90
38398;DHT22;24179;52.094;4.408;2023-02-28T07:48:11;1.80;99.90
38398;DHT22;24179;52.094;4.408;2023-02-28T07:51:12;1.80;99.90
38398;DHT22;24179;52.094;4.408;2023-02-28T07:54:12;1.70;99.90
38398;DHT22;24179;52.094;4.408;2023-02-28T07:57:13;1.80;99.90
38398;DHT22;24179;52.094;4.408;2023-02-28T08:00:14;1.70;99.90
38398;DHT22;24179;52.094;4.408;2023-02-28T08:03:14;1.80;99.90
38398;DHT22;24179;52.094;4.408;2023-02-28T08:06:17;1.80;99.90
38398;DHT22;24179;52.094;4.408;2023-02-28T08:09:18;1.70;99.90
38398;DHT22;24179;52.094;4.408;2023-02-28T08:12:19;1.70;99.90
38398;DHT22;24179;52.094;4.408;2023-02-28T08:15:20;1.80;99.90
38398;DHT22;24179;52.094;4.408;2023-02-28T08:18:21;1.80;99.90
38398;DHT22;24179;52.094;4.408;2023-02-28T08:21:21;1.80;99.90
38398;DHT22;24179;52.094;4.408;2023-02-28T08:24:22;1.90;99.90
38398;DHT22;24179;52.094;4.408;2023-02-28T08:27:22;1.80;99.90
38398;DHT22;24179;52.094;4.408;2023-02-28T08:30:23;1.80;99.90
38398;DHT22;24179;52.094;4.408;2023-02-28T08:33:24;1.80;99.90
38398;DHT22;24179;52.094;4.408;2023-02-28T08:36:25;1.70;99.90
38398;DHT22;24179;52.094;4.408;2023-02-28T08:39:26;1.70;99.90
38398;DHT22;24179;52.094;4.408;2023-02-28T08:42:26;1.70;99.90
38398;DHT22;24179;52.094;4.408;2023-02-28T08:45:27;1.70;99.90
38398;DHT22;24179;52.094;4.408;2023-02-28T08:48:28;1.70;99.90
38398;DHT22;24179;52.094;4.408;2023-02-28T08:51:28;1.80;99.90
38398;DHT22;24179;52.094;4.408;2023-02-28T08:54:29;1.90;99.90
38398;DHT22;24179;52.094;4.408;2023-02-28T08:57:32;2.10;99.90
38398;DHT22;24179;52.094;4.408;2023-02-28T09:00:32;2.10;99.90
38398;DHT22;24179;52.094;4.408;2023-02-28T09:03:33;2.10;99.90
38398;DHT22;24179;52.094;4.408;2023-02-28T09:06:33;2.20;99.90
38398;DHT22;24179;52.094;4.408;2023-02-28T09:09:34;2.30;99.90
38398;DHT22;24179;52.094;4.408;2023-02-28T09:12:34;2.30;99.90
38398;DHT22;24179;52.094;4.408;2023-02-28T09:15:38;2.40;99.90
38398;DHT22;24179;52.094;4.408;2023-02-28T09:18:39;2.50;99.90
38398;DHT22;24179;52.094;4.408;2023-02-28T09:21:40;2.60;99.90
38398;DHT22;24179;52.094;4.408;2023-02-28T09:24:43;2.70;99.90
38398;DHT22;24179;52.094;4.408;2023-02-28T09:27:44;2.90;99.90
38398;DHT22;24179;52.094;4.408;2023-02-28T09:30:47;3.00;99.90
38398;DHT22;24179;52.094;4.408;2023-02-28T09:33:48;3.10;99.90
38398;DHT22;24179;52.094;4.408;2023-02-28T09:36:48;3.30;99.90
38398;DHT22;24179;52.094;4.408;2023-02-28T09:39:50;3.30;99.90
38398;DHT22;24179;52.094;4.408;2023-02-28T09:42:53;3.50;99.90
38398;DHT22;24179;52.094;4.408;2023-02-28T09:49:11;3.80;99.90
38398;DHT22;24179;52.094;4.408;2023-02-28T09:52:19;3.90;99.90
38398;DHT22;24179;52.094;4.408;2023-02-28T09:55:35;3.90;99.90
38398;DHT22;24179;52.094;4.408;2023-02-28T09:58:42;3.90;99.90
38398;DHT22;24179;52.094;4.408;2023-02-28T10:01:49;4.00;99.90
38398;DHT22;24179;52.094;4.408;2023-02-28T10:04:58;4.10;99.90
38398;DHT22;24179;52.094;4.408;2023-02-28T10:08:01;4.20;99.90
38398;DHT22;24179;52.094;4.408;2023-02-28T10:11:06;4.50;99.90
38398;DHT22;24179;52.094;4.408;2023-02-28T10:14:26;4.80;99.90
38398;DHT22;24179;52.094;4.408;2023-02-28T10:17:27;5.00;99.90
38398;DHT22;24179;52.094;4.408;2023-02-28T10:20:32;5.30;99.90
38398;DHT22;24179;52.094;4.408;2023-02-28T10:23:34;5.60;99.90
38398;DHT22;24179;52.094;4.408;2023-02-28T10:26:35;5.80;99.90
38398;DHT22;24179;52.094;4.408;2023-02-28T10:29:36;6.10;99.90
38398;DHT22;24179;52.094;4.408;2023-02-28T10:32:38;6.10;99.90
38398;DHT22;24179;52.094;4.408;2023-02-28T10:35:39;5.90;99.90
38398;DHT22;24179;52.094;4.408;2023-02-28T10:38:39;5.70;99.90
38398;DHT22;24179;52.094;4.408;2023-02-28T10:41:42;5.50;99.90
38398;DHT22;24179;52.094;4.408;2023-02-28T10:44:42;5.30;99.90
38398;DHT22;24179;52.094;4.408;2023-02-28T10:47:51;5.20;99.90
38398;DHT22;24179;52.094;4.408;2023-02-28T10:50:52;5.20;99.90
38398;DHT22;24179;52.094;4.408;2023-02-28T10:53:57;5.00;99.90
38398;DHT22;24179;52.094;4.408;2023-02-28T11:00:16;4.90;99.90
38398;DHT22;24179;52.094;4.408;2023-02-28T11:03:25;4.80;99.90
38398;DHT22;24179;52.094;4.408;2023-02-28T11:06:29;5.00;99.90
38398;DHT22;24179;52.094;4.408;2023-02-28T11:09:32;5.10;99.90
38398;DHT22;24179;52.094;4.408;2023-02-28T11:12:37;5.40;99.90
38398;DHT22;24179;52.094;4.408;2023-02-28T11:15:38;5.90;99.90
38398;DHT22;24179;52.094;4.408;2023-02-28T11:21:39;7.10;99.90
38398;DHT22;24179;52.094;4.408;2023-02-28T11:24:47;8.10;99.90
38398;DHT22;24179;52.094;4.408;2023-02-28T11:27:51;8.90;99.90
38398;DHT22;24179;52.094;4.408;2023-02-28T11:34:01;10.50;99.90
38398;DHT22;24179;52.094;4.408;2023-02-28T11:37:02;10.60;99.90
38398;DHT22;24179;52.094;4.408;2023-02-28T11:40:08;10.40;99.90
38398;DHT22;24179;52.094;4.408;2023-02-28T11:49:26;11.40;99.90
38398;DHT22;24179;52.094;4.408;2023-02-28T11:55:42;10.60;99.90
38398;DHT22;24179;52.094;4.408;2023-02-28T11:58:54;9.70;99.90
38398;DHT22;24179;52.094;4.408;2023-02-28T12:05:09;10.20;99.90
38398;DHT22;24179;52.094;4.408;2023-02-28T12:08:20;10.80;99.90
38398;DHT22;24179;52.094;4.408;2023-02-28T12:17:43;10.40;99.90
38398;DHT22;24179;52.094;4.408;2023-02-28T12:27:24;9.60;99.90
38398;DHT22;24179;52.094;4.408;2023-02-28T12:30:27;9.10;99.90
38398;DHT22;24179;52.094;4.408;2023-02-28T12:33:32;9.00;99.90
38398;DHT22;24179;52.094;4.408;2023-02-28T12:36:34;8.90;99.90
38398;DHT22;24179;52.094;4.408;2023-02-28T12:39:37;9.20;99.90
38398;DHT22;24179;52.094;4.408;2023-02-28T12:42:48;9.70;99.90
38398;DHT22;24179;52.094;4.408;2023-02-28T12:45:51;10.40;99.50
38398;DHT22;24179;52.094;4.408;2023-02-28T12:48:55;10.60;99.90
38398;DHT22;24179;52.094;4.408;2023-02-28T12:51:57;11.30;98.40
38398;DHT22;24179;52.094;4.408;2023-02-28T12:55:01;11.40;98.50
38398;DHT22;24179;52.094;4.408;2023-02-28T13:10:20;11.90;98.00
38398;DHT22;24179;52.094;4.408;2023-02-28T13:13:21;12.00;96.80
38398;DHT22;24179;52.094;4.408;2023-02-28T13:16:23;11.60;95.40
38398;DHT22;24179;52.094;4.408;2023-02-28T13:19:24;11.60;97.00
38398;DHT22;24179;52.094;4.408;2023-02-28T13:25:49;12.00;96.00
38398;DHT22;24179;52.094;4.408;2023-02-28T13:28:56;12.20;95.70
38398;DHT22;24179;52.094;4.408;2023-02-28T13:38:09;12.00;94.10
38398;DHT22;24179;52.094;4.408;2023-02-28T13:44:31;11.80;94.50
38398;DHT22;24179;52.094;4.408;2023-02-28T13:48:01;12.10;93.20
38398;DHT22;24179;52.094;4.408;2023-02-28T13:51:24;11.90;93.20
38398;DHT22;24179;52.094;4.408;2023-02-28T13:54:32;11.30;93.10
38398;DHT22;24179;52.094;4.408;2023-02-28T14:07:06;11.60;92.20
38398;DHT22;24179;52.094;4.408;2023-02-28T14:10:07;11.40;94.90
38398;DHT22;24179;52.094;4.408;2023-02-28T14:16:22;11.00;93.80
38398;DHT22;24179;52.094;4.408;2023-02-28T14:19:24;11.40;94.90
38398;DHT22;24179;52.094;4.408;2023-02-28T14:25:33;11.40;93.70
38398;DHT22;24179;52.094;4.408;2023-02-28T14:28:48;11.40;93.70
38398;DHT22;24179;52.094;4.408;2023-02-28T14:38:22;10.70;93.70
38398;DHT22;24179;52.094;4.408;2023-02-28T14:41:29;10.40;93.30
38398;DHT22;24179;52.094;4.408;2023-02-28T14:44:30;9.60;93.20
38398;DHT22;24179;52.094;4.408;2023-02-28T14:47:32;9.00;94.30
38398;DHT22;24179;52.094;4.408;2023-02-28T14:50:35;8.50;94.10
38398;DHT22;24179;52.094;4.408;2023-02-28T14:53:36;8.10;94.80
38398;DHT22;24179;52.094;4.408;2023-02-28T14:56:37;7.80;94.50
38398;DHT22;24179;52.094;4.408;2023-02-28T14:59:38;7.50;95.30
38398;DHT22;24179;52.094;4.408;2023-02-28T15:02:39;7.30;95.20
38398;DHT22;24179;52.094;4.408;2023-02-28T15:05:40;7.30;96.70
38398;DHT22;24179;52.094;4.408;2023-02-28T15:08:40;7.20;96.70
38398;DHT22;24179;52.094;4.408;2023-02-28T15:11:41;7.10;97.20
38398;DHT22;24179;52.094;4.408;2023-02-28T15:14:42;7.00;96.50
38398;DHT22;24179;52.094;4.408;2023-02-28T15:17:44;7.00;96.60
38398;DHT22;24179;52.094;4.408;2023-02-28T15:20:46;6.90;95.90
38398;DHT22;24179;52.094;4.408;2023-02-28T15:23:49;6.80;96.10
38398;DHT22;24179;52.094;4.408;2023-02-28T15:26:55;6.80;97.10
38398;DHT22;24179;52.094;4.408;2023-02-28T15:29:58;6.70;97.30
38398;DHT22;24179;52.094;4.408;2023-02-28T15:33:32;6.70;98.10
38398;DHT22;24179;52.094;4.408;2023-02-28T15:36:29;6.70;98.00
38398;DHT22;24179;52.094;4.408;2023-02-28T15:39:32;6.60;98.00
38398;DHT22;24179;52.094;4.408;2023-02-28T15:42:41;6.60;98.00
38398;DHT22;24179;52.094;4.408;2023-02-28T15:45:51;6.50;97.40
38398;DHT22;24179;52.094;4.408;2023-02-28T15:48:55;6.50;97.80
38398;DHT22;24179;52.094;4.408;2023-02-28T15:51:57;6.40;98.50
38398;DHT22;24179;52.094;4.408;2023-02-28T15:54:59;6.30;98.00
38398;DHT22;24179;52.094;4.408;2023-02-28T15:58:00;6.30;97.90
38398;DHT22;24179;52.094;4.408;2023-02-28T16:01:06;6.20;98.60
38398;DHT22;24179;52.094;4.408;2023-02-28T16:07:14;6.00;98.30
38398;DHT22;24179;52.094;4.408;2023-02-28T16:10:14;5.90;97.90
38398;DHT22;24179;52.094;4.408;2023-02-28T16:13:15;5.90;98.40
38398;DHT22;24179;52.094;4.408;2023-02-28T16:16:17;5.80;98.50
38398;DHT22;24179;52.094;4.408;2023-02-28T16:19:17;5.70;98.80
38398;DHT22;24179;52.094;4.408;2023-02-28T16:22:18;5.60;98.70
38398;DHT22;24179;52.094;4.408;2023-02-28T16:25:20;5.60;99.20
38398;DHT22;24179;52.094;4.408;2023-02-28T16:31:23;5.40;99.90
38398;DHT22;24179;52.094;4.408;2023-02-28T16:34:23;5.40;99.90
38398;DHT22;24179;52.094;4.408;2023-02-28T16:37:25;5.40;99.90
38398;DHT22;24179;52.094;4.408;2023-02-28T16:40:27;5.30;99.90
38398;DHT22;24179;52.094;4.408;2023-02-28T16:43:28;5.20;99.90
38398;DHT22;24179;52.094;4.408;2023-02-28T16:46:35;5.10;99.90
38398;DHT22;24179;52.094;4.408;2023-02-28T16:49:36;5.00;99.90
38398;DHT22;24179;52.094;4.408;2023-02-28T16:52:36;4.90;99.90
38398;DHT22;24179;52.094;4.408;2023-02-28T16:55:37;4.80;99.90
38398;DHT22;24179;52.094;4.408;2023-02-28T16:58:37;4.80;99.90
38398;DHT22;24179;52.094;4.408;2023-02-28T17:01:38;4.70;99.90
38398;DHT22;24179;52.094;4.408;2023-02-28T17:04:39;4.60;99.90
38398;DHT22;24179;52.094;4.408;2023-02-28T17:07:40;4.40;99.90
38398;DHT22;24179;52.094;4.408;2023-02-28T17:10:40;4.30;99.90
38398;DHT22;24179;52.094;4.408;2023-02-28T17:13:41;4.30;99.90
38398;DHT22;24179;52.094;4.408;2023-02-28T17:16:42;4.20;99.90
38398;DHT22;24179;52.094;4.408;2023-02-28T17:19:45;4.10;99.90
38398;DHT22;24179;52.094;4.408;2023-02-28T17:22:45;4.00;99.90
38398;DHT22;24179;52.094;4.408;2023-02-28T17:25:46;4.00;99.90
38398;DHT22;24179;52.094;4.408;2023-02-28T17:28:54;3.90;99.90
38398;DHT22;24179;52.094;4.408;2023-02-28T17:31:57;3.80;99.90
38398;DHT22;24179;52.094;4.408;2023-02-28T17:34:58;3.70;99.90
38398;DHT22;24179;52.094;4.408;2023-02-28T17:37:58;3.70;99.90
38398;DHT22;24179;52.094;4.408;2023-02-28T17:40:59;3.60;99.90
38398;DHT22;24179;52.094;4.408;2023-02-28T17:43:59;3.50;99.90
38398;DHT22;24179;52.094;4.408;2023-02-28T17:47:00;3.50;99.90
38398;DHT22;24179;52.094;4.408;2023-02-28T17:50:00;3.50;99.90
38398;DHT22;24179;52.094;4.408;2023-02-28T17:53:01;3.40;99.90
38398;DHT22;24179;52.094;4.408;2023-02-28T17:56:01;3.40;99.90
38398;DHT22;24179;52.094;4.408;2023-02-28T17:59:02;3.40;99.90
38398;DHT22;24179;52.094;4.408;2023-02-28T18:02:02;3.30;99.90
38398;DHT22;24179;52.094;4.408;2023-02-28T18:05:03;3.30;99.90
38398;DHT22;24179;52.094;4.408;2023-02-28T18:08:04;3.20;99.90
38398;DHT22;24179;52.094;4.408;2023-02-28T18:11:05;3.10;99.90
38398;DHT22;24179;52.094;4.408;2023-02-28T18:14:05;3.00;99.90
38398;DHT22;24179;52.094;4.408;2023-02-28T18:17:06;2.90;99.90
38398;DHT22;24179;52.094;4.408;2023-02-28T18:20:06;2.80;99.90
38398;DHT22;24179;52.094;4.408;2023-02-28T18:23:09;2.70;99.90
38398;DHT22;24179;52.094;4.408;2023-02-28T18:26:09;2.70;99.90
38398;DHT22;24179;52.094;4.408;2023-02-28T18:29:18;2.60;99.90
38398;DHT22;24179;52.094;4.408;2023-02-28T18:32:18;2.50;99.90
38398;DHT22;24179;52.094;4.408;2023-02-28T18:35:19;2.50;99.90
38398;DHT22;24179;52.094;4.408;2023-02-28T18:38:33;2.30;99.90
38398;DHT22;24179;52.094;4.408;2023-02-28T18:41:34;2.30;99.90
38398;DHT22;24179;52.094;4.408;2023-02-28T18:44:38;2.20;99.90
38398;DHT22;24179;52.094;4.408;2023-02-28T18:47:38;2.10;99.90
38398;DHT22;24179;52.094;4.408;2023-02-28T18:50:39;2.10;99.90
38398;DHT22;24179;52.094;4.408;2023-02-28T18:53:39;2.10;99.90
38398;DHT22;24179;52.094;4.408;2023-02-28T18:56:41;2.00;99.90
38398;DHT22;24179;52.094;4.408;2023-02-28T18:59:42;2.00;99.90
38398;DHT22;24179;52.094;4.408;2023-02-28T19:02:42;1.90;99.90
38398;DHT22;24179;52.094;4.408;2023-02-28T19:05:43;1.90;99.90
38398;DHT22;24179;52.094;4.408;2023-02-28T19:08:43;1.80;99.90
38398;DHT22;24179;52.094;4.408;2023-02-28T19:11:44;1.80;99.90
38398;DHT22;24179;52.094;4.408;2023-02-28T19:14:44;1.70;99.90
38398;DHT22;24179;52.094;4.408;2023-02-28T19:17:46;1.70;99.90
38398;DHT22;24179;52.094;4.408;2023-02-28T19:20:46;1.60;99.90
38398;DHT22;24179;52.094;4.408;2023-02-28T19:23:47;1.60;99.90
38398;DHT22;24179;52.094;4.408;2023-02-28T19:26:47;1.50;99.90
38398;DHT22;24179;52.094;4.408;2023-02-28T19:29:51;1.50;99.90
38398;DHT22;24179;52.094;4.408;2023-02-28T19:32:52;1.50;99.90
38398;DHT22;24179;52.094;4.408;2023-02-28T19:35:52;1.40;99.90
38398;DHT22;24179;52.094;4.408;2023-02-28T19:38:53;1.40;99.90
38398;DHT22;24179;52.094;4.408;2023-02-28T19:41:53;1.40;99.90
38398;DHT22;24179;52.094;4.408;2023-02-28T19:44:54;1.40;99.90
38398;DHT22;24179;52.094;4.408;2023-02-28T19:47:54;1.40;99.90
38398;DHT22;24179;52.094;4.408;2023-02-28T19:50:56;1.30;99.90
38398;DHT22;24179;52.094;4.408;2023-02-28T19:53:57;1.20;99.90
38398;DHT22;24179;52.094;4.408;2023-02-28T19:56:57;1.20;99.90
38398;DHT22;24179;52.094;4.408;2023-02-28T19:59:58;1.10;99.90
38398;DHT22;24179;52.094;4.408;2023-02-28T20:02:58;1.00;99.90
38398;DHT22;24179;52.094;4.408;2023-02-28T20:06:03;0.90;99.90
38398;DHT22;24179;52.094;4.408;2023-02-28T20:09:04;0.90;99.90
38398;DHT22;24179;52.094;4.408;2023-02-28T20:12:04;0.80;99.90
38398;DHT22;24179;52.094;4.408;2023-02-28T20:15:05;0.80;99.90
38398;DHT22;24179;52.094;4.408;2023-02-28T20:18:06;0.70;99.90
38398;DHT22;24179;52.094;4.408;2023-02-28T20:21:07;0.70;99.90
38398;DHT22;24179;52.094;4.408;2023-02-28T20:24:08;0.60;99.90
38398;DHT22;24179;52.094;4.408;2023-02-28T20:27:08;0.50;99.90
38398;DHT22;24179;52.094;4.408;2023-02-28T20:30:09;0.50;99.90
38398;DHT22;24179;52.094;4.408;2023-02-28T20:33:10;0.40;99.90
38398;DHT22;24179;52.094;4.408;2023-02-28T20:36:10;0.50;99.90
38398;DHT22;24179;52.094;4.408;2023-02-28T20:39:11;0.50;99.90
38398;DHT22;24179;52.094;4.408;2023-02-28T20:42:12;0.30;99.90
38398;DHT22;24179;52.094;4.408;2023-02-28T20:45:13;0.40;99.90
38398;DHT22;24179;52.094;4.408;2023-02-28T20:48:13;0.40;99.90
38398;DHT22;24179;52.094;4.408;2023-02-28T20:51:14;0.30;99.90
38398;DHT22;24179;52.094;4.408;2023-02-28T20:54:15;0.30;99.90
38398;DHT22;24179;52.094;4.408;2023-02-28T20:57:15;0.30;99.90
38398;DHT22;24179;52.094;4.408;2023-02-28T21:00:16;0.30;99.90
38398;DHT22;24179;52.094;4.408;2023-02-28T21:03:17;0.30;99.90
38398;DHT22;24179;52.094;4.408;2023-02-28T21:06:19;0.30;99.90
38398;DHT22;24179;52.094;4.408;2023-02-28T21:09:19;0.30;99.90
38398;DHT22;24179;52.094;4.408;2023-02-28T21:12:20;0.30;99.90
38398;DHT22;24179;52.094;4.408;2023-02-28T21:15:21;0.20;99.90
38398;DHT22;24179;52.094;4.408;2023-02-28T21:18:21;0.20;99.90
38398;DHT22;24179;52.094;4.408;2023-02-28T21:21:23;0.20;99.90
38398;DHT22;24179;52.094;4.408;2023-02-28T21:24:24;0.30;99.90
38398;DHT22;24179;52.094;4.408;2023-02-28T21:27:24;0.30;99.90
38398;DHT22;24179;52.094;4.408;2023-02-28T21:30:24;0.30;99.90
38398;DHT22;24179;52.094;4.408;2023-02-28T21:33:25;0.30;99.90